White River, Canada
Current Conditions -  °F | °C
As of 3:00 PM on Thursday 20 Nov 2014 (Local Time) from CYXZ Reporting Station
Few Clouds Few Clouds  
Wind Chill:   Ceiling: Unl
Heat Index: 12°   Visibility: 15mi
Dew Point:   Wind: 9mph
Humidity: 67%   Direction: 30°NNE
Pressure: 29.79"   Gusts: NA
Location:  48.58°N, 85.28°W
Report Text: CYXZ 202000Z 03008KT 15SM FEW030 FEW220 M11/M16 A2979 RMK SC1CS1 SLP109
Loading
Personal Weather Stations






























Interactive Weather Map New forecast layout! Learn more

10-Day Weather Forecast

Advertisements
Track Severe Weather on mobile